Time;durP1;ratioP1;P1;durP2;ratioP2;P2;SDS_P1;SDS_P2;PMS_P1;PMS_P2;Temp;Humidity;BMP_temperature;BMP_pressure;BME280_temperature;BME280_humidity;BME280_pressure;Samples;Min_cycle;Max_cycle;Signal;HPM_P1;HPM_P2
2021/11/24 00:01:42;;;;;;;17.50;11.88;;;;;;;2.39;99.17;100298.19;5064360;28;20271;-75
2021/11/24 00:04:09;;;;;;;17.50;11.27;;;;;;;2.37;99.18;100294.66;5063201;28;20284;-75
2021/11/24 00:06:35;;;;;;;17.88;11.63;;;;;;;2.42;99.27;100294.59;5064277;28;20276;-75
2021/11/24 00:09:04;;;;;;;20.65;11.90;;;;;;;2.52;99.04;100295.38;5063792;28;20663;-75
2021/11/24 00:11:31;;;;;;;17.27;12.27;;;;;;;2.52;97.99;100293.59;5064471;28;20223;-75
2021/11/24 00:13:57;;;;;;;17.67;11.93;;;;;;;2.49;98.17;100293.66;5057748;28;20584;-75
2021/11/24 00:16:24;;;;;;;19.60;12.10;;;;;;;2.51;98.19;100297.16;5066717;28;20272;-75
2021/11/24 00:18:51;;;;;;;17.83;12.65;;;;;;;2.30;98.05;100285.91;5064828;28;20658;-75
2021/11/24 00:21:19;;;;;;;16.90;12.45;;;;;;;2.36;98.52;100294.72;5063813;28;20236;-75
2021/11/24 00:23:45;;;;;;;17.17;10.93;;;;;;;2.39;98.70;100292.00;5065322;28;20280;-75
2021/11/24 00:26:14;;;;;;;19.25;13.18;;;;;;;2.18;98.75;100288.72;5067913;28;20244;-75
2021/11/24 00:28:41;;;;;;;16.40;12.15;;;;;;;2.32;98.72;100283.22;5065521;28;20296;-75
2021/11/24 00:31:07;;;;;;;18.67;11.68;;;;;;;2.45;97.55;100281.28;5067464;28;20276;-75
2021/11/24 00:33:34;;;;;;;15.60;11.35;;;;;;;2.50;97.96;100276.78;5066653;28;20206;-75
2021/11/24 00:36:01;;;;;;;16.10;10.15;;;;;;;2.54;99.14;100280.28;5067282;28;20272;-74
2021/11/24 00:38:28;;;;;;;19.27;12.88;;;;;;;2.33;98.06;100268.16;5066588;28;20290;-75
2021/11/24 00:40:55;;;;;;;18.65;11.43;;;;;;;2.21;98.32;100272.75;5056223;28;20272;-75
2021/11/24 00:43:23;;;;;;;19.73;12.30;;;;;;;2.35;98.46;100274.34;5063168;28;20599;-75
2021/11/24 00:45:50;;;;;;;16.20;10.07;;;;;;;2.51;100.00;100262.59;5065595;28;20270;-75
2021/11/24 00:48:17;;;;;;;17.88;11.10;;;;;;;2.65;99.43;100271.25;5066040;28;20280;-75
2021/11/24 00:50:43;;;;;;;17.73;11.52;;;;;;;2.47;99.52;100264.41;5063863;28;20378;-75
2021/11/24 00:53:10;;;;;;;17.98;12.13;;;;;;;2.48;100.00;100262.63;5063432;28;20699;-74
2021/11/24 00:55:37;;;;;;;20.88;11.73;;;;;;;2.32;99.48;100253.13;5065276;28;20552;-73
2021/11/24 00:58:04;;;;;;;19.55;11.80;;;;;;;2.33;99.18;100254.88;5060884;28;20265;-75
2021/11/24 01:00:32;;;;;;;16.50;11.15;;;;;;;2.34;99.16;100246.00;5064268;28;20281;-75
2021/11/24 01:02:58;;;;;;;17.77;11.10;;;;;;;2.49;100.00;100251.13;5066479;28;20267;-75
2021/11/24 01:05:25;;;;;;;16.73;10.50;;;;;;;2.66;99.82;100257.03;5065746;28;20702;-75
2021/11/24 01:07:52;;;;;;;14.77;10.27;;;;;;;2.74;98.15;100261.34;5058960;28;20337;-75
2021/11/24 01:10:19;;;;;;;14.80;9.95;;;;;;;2.84;98.51;100247.03;5065195;28;20546;-74
2021/11/24 01:12:47;;;;;;;16.00;11.20;;;;;;;2.92;98.27;100250.44;5062254;28;20283;-74
2021/11/24 01:15:15;;;;;;;17.75;11.10;;;;;;;2.86;96.81;100240.78;5055773;28;20186;-74
2021/11/24 01:17:43;;;;;;;16.35;10.73;;;;;;;3.24;96.72;100247.22;5062064;28;20215;-74
2021/11/24 01:20:12;;;;;;;13.05;10.05;;;;;;;3.06;94.55;100243.09;5063055;28;20283;-75
2021/11/24 01:22:38;;;;;;;14.73;9.63;;;;;;;3.36;95.54;100239.91;5063074;28;20277;-75
2021/11/24 01:25:05;;;;;;;16.95;10.40;;;;;;;3.66;94.40;100241.97;5057759;28;20236;-74
2021/11/24 01:27:33;;;;;;;14.68;9.75;;;;;;;3.73;93.55;100240.06;5062476;28;20277;-75
2021/11/24 01:29:59;;;;;;;12.07;9.48;;;;;;;3.81;92.82;100238.16;5062727;28;20254;-74
2021/11/24 01:32:26;;;;;;;17.75;9.98;;;;;;;3.67;92.95;100234.91;5059705;28;20274;-75
2021/11/24 01:34:54;;;;;;;14.82;9.27;;;;;;;3.65;93.55;100231.38;5060167;28;20285;-74
2021/11/24 01:37:21;;;;;;;16.75;9.65;;;;;;;3.21;95.20;100235.75;5064410;28;20654;-75
2021/11/24 01:39:47;;;;;;;15.13;9.75;;;;;;;3.11;97.64;100225.25;5062068;28;20361;-75
2021/11/24 01:42:15;;;;;;;13.82;9.15;;;;;;;3.20;97.94;100234.00;5054436;28;20711;-75
2021/11/24 01:44:41;;;;;;;15.95;9.48;;;;;;;3.01;98.50;100231.66;5068216;28;20197;-74
2021/11/24 01:47:08;;;;;;;15.95;10.57;;;;;;;3.06;99.17;100229.78;5057708;28;20731;-73
2021/11/24 01:49:35;;;;;;;13.05;9.40;;;;;;;3.22;98.66;100232.19;5055199;28;20291;-75
2021/11/24 01:52:04;;;;;;;14.15;10.02;;;;;;;3.31;98.00;100232.03;5065779;28;20610;-74
2021/11/24 01:54:31;;;;;;;14.48;9.32;;;;;;;3.35;97.89;100225.75;5053616;28;20217;-74
2021/11/24 01:56:59;;;;;;;14.07;10.07;;;;;;;3.24;98.35;100217.94;5059264;28;20193;-75
2021/11/24 01:59:26;;;;;;;17.40;10.90;;;;;;;3.38;97.98;100219.47;5067459;28;20292;-73
2021/11/24 02:01:54;;;;;;;15.00;8.93;;;;;;;3.29;98.00;100210.75;5061657;28;20229;-75
2021/11/24 02:04:21;;;;;;;14.38;9.25;;;;;;;3.21;99.65;100215.34;5059535;28;20258;-73
2021/11/24 02:06:49;;;;;;;12.98;8.82;;;;;;;3.36;98.82;100215.97;5054348;28;20248;-73
2021/11/24 02:09:20;;;;;;;14.45;9.45;;;;;;;3.39;98.56;100215.91;5056368;28;20243;-74
2021/11/24 02:11:47;;;;;;;11.30;9.52;;;;;;;3.33;98.41;100209.78;5061266;28;20230;-74
2021/11/24 02:14:15;;;;;;;14.10;9.55;;;;;;;3.16;99.79;100211.88;5064649;28;20284;-75
2021/11/24 02:16:43;;;;;;;16.17;9.70;;;;;;;3.01;100.00;100202.41;5061539;28;20715;-75
2021/11/24 02:19:10;;;;;;;12.63;9.73;;;;;;;3.05;100.00;100211.19;5057591;28;20289;-74
2021/11/24 02:21:38;;;;;;;16.92;10.60;;;;;;;3.17;100.00;100203.00;5061565;28;20229;-74
2021/11/24 02:24:06;;;;;;;16.23;10.05;;;;;;;3.13;100.00;100199.50;5061935;28;20277;-74
2021/11/24 02:26:32;;;;;;;18.67;10.48;;;;;;;3.17;100.00;100199.47;5064719;28;20185;-74
2021/11/24 02:28:59;;;;;;;14.18;9.50;;;;;;;3.25;100.00;100201.06;5064505;28;20283;-74
2021/11/24 02:31:27;;;;;;;12.43;9.75;;;;;;;3.47;99.83;100198.00;5060956;28;20229;-74
2021/11/24 02:33:56;;;;;;;18.00;9.50;;;;;;;3.67;98.17;100197.59;5054666;28;20655;-74
2021/11/24 02:36:24;;;;;;;16.25;9.40;;;;;;;3.86;96.40;100193.63;5050039;28;20213;-74
2021/11/24 02:38:53;;;;;;;13.07;9.68;;;;;;;3.92;94.70;100195.31;5064346;28;20304;-74
2021/11/24 02:41:20;;;;;;;12.20;8.27;;;;;;;3.70;95.77;100202.88;5048481;28;20635;-74
2021/11/24 02:43:46;;;;;;;11.70;8.88;;;;;;;3.59;97.08;100192.41;5059055;28;20551;-75
2021/11/24 02:46:13;;;;;;;16.05;8.60;;;;;;;3.54;97.44;100187.19;5057743;28;20268;-74
2021/11/24 02:48:40;;;;;;;13.02;9.15;;;;;;;3.49;97.72;100189.06;5063046;28;20699;-74
2021/11/24 02:51:07;;;;;;;14.60;9.20;;;;;;;3.44;98.49;100182.97;5063393;28;20201;-74
2021/11/24 02:53:36;;;;;;;12.77;7.90;;;;;;;3.30;99.52;100192.97;5058320;28;20228;-74
2021/11/24 02:56:05;;;;;;;14.25;9.23;;;;;;;3.47;99.03;100182.91;5052820;28;20280;-74
2021/11/24 02:58:32;;;;;;;12.10;9.05;;;;;;;3.48;98.75;100190.00;5053005;28;20751;-74
2021/11/24 03:01:02;;;;;;;12.98;8.50;;;;;;;3.44;99.34;100182.09;5054119;28;20582;-74
2021/11/24 03:03:29;;;;;;;12.90;8.25;;;;;;;3.75;97.73;100179.66;5057927;28;20671;-74
2021/11/24 03:05:56;;;;;;;16.13;8.18;;;;;;;3.79;97.13;100181.34;5061818;28;20198;-74
2021/11/24 03:08:23;;;;;;;13.98;9.23;;;;;;;3.68;97.62;100186.03;5064196;28;20231;-74
2021/11/24 03:10:49;;;;;;;15.10;9.48;;;;;;;3.53;98.36;100181.91;5060778;28;20300;-74
2021/11/24 03:13:18;;;;;;;11.93;9.13;;;;;;;3.62;98.31;100176.41;5060142;28;20275;-74
2021/11/24 03:15:44;;;;;;;13.52;9.45;;;;;;;3.61;98.55;100179.09;5060693;28;20225;-74
2021/11/24 03:18:11;;;;;;;14.20;9.40;;;;;;;3.58;98.85;100169.38;5064261;28;20304;-74
2021/11/24 03:20:38;;;;;;;16.05;10.07;;;;;;;3.47;100.00;100172.25;5063219;28;20195;-75
2021/11/24 03:23:04;;;;;;;14.85;8.93;;;;;;;3.70;99.00;100165.56;5060720;28;20271;-74
2021/11/24 03:25:32;;;;;;;11.77;8.77;;;;;;;3.73;98.29;100152.19;5052547;28;21952;-73
2021/11/24 03:27:58;;;;;;;11.82;9.25;;;;;;;3.62;99.09;100154.19;5052539;28;20280;-75
2021/11/24 03:30:29;;;;;;;11.90;8.05;;;;;;;3.66;99.10;100137.25;5056332;28;20236;-73
2021/11/24 03:32:58;;;;;;;15.20;9.00;;;;;;;3.66;99.09;100129.25;5056045;28;20205;-75
2021/11/24 03:35:26;;;;;;;10.90;8.02;;;;;;;3.48;100.00;100131.41;5064470;28;20251;-75
2021/11/24 03:37:53;;;;;;;12.85;8.63;;;;;;;3.44;100.00;100128.84;5061645;28;20217;-75
2021/11/24 03:40:23;;;;;;;13.07;9.13;;;;;;;3.53;100.00;100121.53;5056569;28;20394;-73
2021/11/24 03:42:51;;;;;;;11.18;7.78;;;;;;;3.69;100.00;100115.91;5060365;28;20304;-74
2021/11/24 03:45:20;;;;;;;12.40;8.63;;;;;;;3.59;100.00;100117.84;5060653;28;20644;-74
2021/11/24 03:47:48;;;;;;;12.80;8.05;;;;;;;3.72;100.00;100113.16;5060443;28;20210;-74
2021/11/24 03:50:15;;;;;;;11.15;8.32;;;;;;;3.63;99.67;100113.34;5060555;28;20684;-74
2021/11/24 03:52:42;;;;;;;12.00;8.45;;;;;;;3.50;100.00;100110.06;5058351;28;20229;-74
2021/11/24 03:55:11;;;;;;;14.57;8.65;;;;;;;3.58;100.00;100113.44;5050102;28;20250;-74
2021/11/24 03:57:38;;;;;;;12.02;7.88;;;;;;;3.64;100.00;100108.00;5053286;28;20649;-74
2021/11/24 04:00:09;;;;;;;10.07;7.55;;;;;;;3.59;100.00;100104.53;5058647;28;20265;-74
2021/11/24 04:02:37;;;;;;;10.20;7.20;;;;;;;3.50;100.00;100102.94;5060567;28;20207;-75
2021/11/24 04:05:07;;;;;;;10.13;7.30;;;;;;;3.52;100.00;100106.47;5058803;28;20186;-75
2021/11/24 04:07:34;;;;;;;12.60;6.70;;;;;;;3.51;100.00;100099.41;5059936;28;20239;-75
2021/11/24 04:10:01;;;;;;;13.68;8.88;;;;;;;3.39;100.00;100096.09;5054512;28;20224;-74
2021/11/24 04:12:28;;;;;;;11.25;7.53;;;;;;;3.37;100.00;100100.56;5060549;28;20188;-74
2021/11/24 04:14:55;;;;;;;11.80;8.02;;;;;;;3.28;100.00;100099.88;5057350;28;20667;-74
2021/11/24 04:17:22;;;;;;;11.02;8.30;;;;;;;3.30;100.00;100097.16;5055536;28;20611;-73
2021/11/24 04:19:49;;;;;;;11.80;8.80;;;;;;;3.43;100.00;100096.00;5059527;28;20245;-74
2021/11/24 04:22:17;;;;;;;11.77;7.80;;;;;;;3.31;100.00;100094.47;5059919;28;20222;-73
2021/11/24 04:24:44;;;;;;;10.30;8.30;;;;;;;3.24;100.00;100095.53;5066944;28;20718;-73
2021/11/24 04:27:10;;;;;;;13.80;9.50;;;;;;;3.31;100.00;100078.50;5060738;28;20683;-75
2021/11/24 04:29:37;;;;;;;11.98;8.07;;;;;;;3.45;100.00;100082.66;5063596;28;20284;-73
2021/11/24 04:32:04;;;;;;;11.55;7.47;;;;;;;3.46;100.00;100082.66;5063728;28;20273;-75
2021/11/24 04:34:31;;;;;;;11.95;8.00;;;;;;;3.54;100.00;100082.47;5057086;28;20272;-73
2021/11/24 04:36:57;;;;;;;13.90;8.43;;;;;;;3.72;100.00;100078.53;5066912;28;20541;-75
2021/11/24 04:39:26;;;;;;;15.55;8.10;;;;;;;3.59;100.00;100082.38;5066512;28;20247;-74
2021/11/24 04:41:53;;;;;;;11.05;7.78;;;;;;;3.67;100.00;100075.09;5055727;28;20272;-75
2021/11/24 04:44:19;;;;;;;11.70;7.68;;;;;;;3.74;100.00;100076.72;5063728;28;20202;-75
2021/11/24 04:46:46;;;;;;;13.23;8.48;;;;;;;3.82;100.00;100069.44;5067124;28;20220;-74
2021/11/24 04:49:13;;;;;;;12.52;7.97;;;;;;;3.83;100.00;100070.28;5059537;28;20190;-75
2021/11/24 04:51:39;;;;;;;13.90;8.82;;;;;;;3.93;100.00;100067.41;5048035;28;20652;-75
2021/11/24 04:54:06;;;;;;;12.30;7.72;;;;;;;4.18;99.33;100072.09;5055567;28;20214;-75
2021/11/24 04:56:34;;;;;;;12.75;8.38;;;;;;;4.13;98.00;100061.56;5058256;28;20276;-75
2021/11/24 04:59:02;;;;;;;13.52;6.65;;;;;;;4.28;97.46;100073.66;5066519;28;20252;-75
2021/11/24 05:01:29;;;;;;;9.25;7.90;;;;;;;4.38;96.33;100068.94;5063905;28;20206;-76
2021/11/24 05:03:56;;;;;;;11.50;7.70;;;;;;;4.45;95.47;100075.00;5054832;28;20221;-73
2021/11/24 05:06:23;;;;;;;11.05;8.35;;;;;;;4.54;95.36;100064.97;5057676;28;20205;-75
2021/11/24 05:08:51;;;;;;;11.43;8.15;;;;;;;4.53;94.08;100068.56;5056914;28;20228;-75
2021/11/24 05:11:20;;;;;;;9.73;7.90;;;;;;;4.62;94.12;100066.59;5058410;28;20200;-74
2021/11/24 05:13:52;;;;;;;10.20;7.30;;;;;;;4.64;92.74;100067.44;5061481;28;20190;-74
2021/11/24 05:16:20;;;;;;;13.68;7.63;;;;;;;4.73;92.39;100064.50;5064362;28;20198;-74
2021/11/24 05:18:48;;;;;;;17.77;8.07;;;;;;;4.80;91.76;100055.41;5054798;28;20210;-75
2021/11/24 05:21:19;;;;;;;12.32;8.05;;;;;;;4.68;92.04;100056.63;5062438;28;20201;-74
2021/11/24 05:23:46;;;;;;;11.52;9.00;;;;;;;4.83;91.99;100051.78;5062150;28;20183;-75
2021/11/24 05:26:13;;;;;;;11.98;7.75;;;;;;;4.67;91.54;100054.88;5062488;28;20316;-74
2021/11/24 05:28:39;;;;;;;16.85;8.85;;;;;;;4.77;91.88;100056.38;5054611;28;20198;-74
2021/11/24 05:31:08;;;;;;;9.90;7.07;;;;;;;4.69;92.27;100052.16;5062826;28;20218;-75
2021/11/24 05:33:36;;;;;;;15.48;9.20;;;;;;;4.71;92.44;100045.88;5065436;28;20217;-75
2021/11/24 05:36:03;;;;;;;15.40;8.02;;;;;;;4.69;92.23;100046.84;5057666;28;20205;-73
2021/11/24 05:38:30;;;;;;;13.18;8.43;;;;;;;4.53;93.07;100043.69;5054266;28;20300;-76
2021/11/24 05:40:56;;;;;;;10.48;8.00;;;;;;;4.70;92.91;100041.44;5063296;28;20221;-73
2021/11/24 05:43:26;;;;;;;11.43;8.60;;;;;;;4.67;92.58;100038.84;5061837;28;20202;-75
2021/11/24 05:46:11;;;;;;;12.55;9.00;;;;;;;4.79;91.88;100038.53;5054268;28;20318;-74
2021/11/24 05:48:40;;;;;;;16.08;8.80;;;;;;;4.71;92.10;100043.19;5062069;28;20193;-74
2021/11/24 05:51:07;;;;;;;16.80;9.60;;;;;;;4.75;91.27;100044.88;5062973;28;20281;-74
2021/11/24 05:53:34;;;;;;;12.25;8.38;;;;;;;4.76;91.80;100043.94;5061723;28;20232;-74
2021/11/24 05:56:00;;;;;;;15.35;8.20;;;;;;;4.76;91.38;100032.41;5061592;28;20272;-76
2021/11/24 05:58:28;;;;;;;9.18;7.45;;;;;;;4.64;92.03;100033.63;5055574;28;20228;-75
2021/11/24 06:00:54;;;;;;;11.55;7.53;;;;;;;4.62;92.20;100021.25;5055000;28;20194;-75
2021/11/24 06:03:21;;;;;;;11.95;7.82;;;;;;;4.70;91.80;100027.22;5054762;28;20190;-75
2021/11/24 06:05:49;;;;;;;13.10;8.82;;;;;;;4.78;91.89;100020.78;5061376;28;20233;-76
2021/11/24 06:08:16;;;;;;;14.25;8.02;;;;;;;4.91;90.57;100009.78;5053019;28;20257;-74
2021/11/24 06:10:43;;;;;;;16.23;7.93;;;;;;;4.81;90.39;100026.00;5057321;28;20274;-75
2021/11/24 06:13:10;;;;;;;8.75;6.68;;;;;;;4.94;89.61;100009.66;5061647;28;20233;-74
2021/11/24 06:15:36;;;;;;;11.57;6.82;;;;;;;5.04;88.12;100004.94;5059645;28;20243;-75
2021/11/24 06:18:03;;;;;;;8.70;6.00;;;;;;;5.01;88.17;100008.56;5056066;28;20277;-74
2021/11/24 06:20:30;;;;;;;9.27;6.70;;;;;;;4.95;88.26;100011.41;5067886;28;20224;-74
2021/11/24 06:22:58;;;;;;;14.82;10.10;;;;;;;5.07;88.18;100004.88;5063362;28;20228;-74
2021/11/24 06:25:25;;;;;;;9.75;8.38;;;;;;;5.05;87.47;100004.91;5060798;28;20278;-75
2021/11/24 06:27:51;;;;;;;9.65;6.18;;;;;;;4.89;87.43;100011.59;5054711;28;20703;-75
2021/11/24 06:30:18;;;;;;;11.52;6.10;;;;;;;4.77;89.02;100000.34;5057428;28;20257;-74
2021/11/24 06:32:46;;;;;;;7.68;6.80;;;;;;;4.67;90.67;100000.66;5063612;28;20541;-74
2021/11/24 06:35:14;;;;;;;10.57;7.40;;;;;;;4.78;90.19;100002.09;5054689;28;20237;-75
2021/11/24 06:37:41;;;;;;;9.40;6.95;;;;;;;4.66;90.58;100006.88;5059305;28;20284;-73
2021/11/24 06:40:10;;;;;;;9.52;7.03;;;;;;;4.73;90.43;99990.69;5052436;28;20233;-75
2021/11/24 06:42:37;;;;;;;7.97;6.93;;;;;;;4.69;90.62;99990.81;5060682;28;20220;-73
2021/11/24 06:45:06;;;;;;;7.40;6.13;;;;;;;4.70;90.57;99989.88;5061998;28;20217;-75
2021/11/24 06:47:33;;;;;;;9.25;6.60;;;;;;;4.80;89.73;99989.59;5063635;28;20197;-74
2021/11/24 06:50:00;;;;;;;8.38;6.28;;;;;;;4.84;88.89;99994.81;5061845;28;20177;-73
2021/11/24 06:52:27;;;;;;;20.75;9.65;;;;;;;4.66;89.59;99997.09;5060395;28;20208;-75
2021/11/24 06:54:53;;;;;;;9.68;6.28;;;;;;;4.68;89.42;99995.28;5070399;28;20249;-73
2021/11/24 06:57:21;;;;;;;7.18;6.00;;;;;;;4.77;89.30;99996.78;5063660;28;20286;-75
2021/11/24 06:59:48;;;;;;;8.25;6.00;;;;;;;4.89;88.38;99991.13;5062023;28;20288;-74
2021/11/24 07:02:15;;;;;;;10.00;6.80;;;;;;;4.76;88.82;99995.06;5061488;28;20213;-74
2021/11/24 07:04:41;;;;;;;8.02;6.40;;;;;;;5.01;87.59;99995.22;5062572;28;20201;-74
2021/11/24 07:07:08;;;;;;;8.65;5.50;;;;;;;4.90;87.22;99992.84;5052031;28;20581;-74
2021/11/24 07:09:35;;;;;;;8.07;6.30;;;;;;;4.85;87.64;99997.47;5060136;28;20273;-72
2021/11/24 07:12:02;;;;;;;9.18;5.25;;;;;;;4.94;86.55;99989.19;5060099;28;20221;-73
2021/11/24 07:14:30;;;;;;;7.70;5.22;;;;;;;4.96;86.89;99994.50;5055133;28;20190;-75
2021/11/24 07:16:59;;;;;;;9.18;6.60;;;;;;;4.92;87.02;99996.34;5063108;28;20595;-74
2021/11/24 07:19:26;;;;;;;5.53;4.57;;;;;;;5.02;86.56;99997.00;5056595;28;20675;-74
2021/11/24 07:21:53;;;;;;;7.55;5.53;;;;;;;5.24;84.99;99997.22;5061734;28;20870;-75
2021/11/24 07:24:21;;;;;;;7.30;5.40;;;;;;;5.27;84.53;99997.13;5063142;28;20276;-74
2021/11/24 07:26:48;;;;;;;8.43;6.00;;;;;;;5.27;84.58;99994.47;5057677;28;20233;-75
2021/11/24 07:29:16;;;;;;;7.05;5.97;;;;;;;5.11;84.55;100002.06;5061583;28;20238;-75
2021/11/24 07:31:44;;;;;;;7.72;5.47;;;;;;;5.14;85.07;100004.63;5061342;28;20209;-73
2021/11/24 07:34:12;;;;;;;8.65;5.05;;;;;;;5.23;84.18;99996.34;5060092;28;20617;-74
2021/11/24 07:36:40;;;;;;;7.55;4.82;;;;;;;5.31;82.96;99995.22;5061757;28;20209;-74
2021/11/24 07:39:07;;;;;;;7.75;5.40;;;;;;;5.36;83.53;99988.84;5057718;28;20288;-74
2021/11/24 07:41:34;;;;;;;6.68;5.38;;;;;;;5.52;82.32;99994.59;5064105;28;20280;-75
2021/11/24 07:44:01;;;;;;;6.93;5.10;;;;;;;5.55;82.03;99990.94;5060273;28;20621;-73
2021/11/24 07:46:27;;;;;;;5.93;4.60;;;;;;;5.63;81.71;99986.22;5060021;28;20209;-73
2021/11/24 07:48:57;;;;;;;7.85;6.60;;;;;;;5.78;80.57;99982.19;5063095;28;20217;-74
2021/11/24 07:51:24;;;;;;;5.22;4.72;;;;;;;5.90;79.95;99980.91;5053649;28;20946;-73
2021/11/24 07:53:51;;;;;;;8.48;5.38;;;;;;;5.82;79.43;99973.16;5048920;28;20284;-74
2021/11/24 07:56:18;;;;;;;8.70;4.55;;;;;;;5.81;79.79;99966.94;5050580;28;20275;-74
2021/11/24 07:58:45;;;;;;;7.60;4.68;;;;;;;5.61;80.70;99970.25;5051629;28;20640;-73
2021/11/24 08:01:13;;;;;;;5.07;4.47;;;;;;;5.60;80.55;99965.81;5059869;28;20278;-73
2021/11/24 08:03:40;;;;;;;6.05;3.95;;;;;;;5.32;81.18;99963.16;5066231;28;20556;-74
2021/11/24 08:06:08;;;;;;;4.75;4.25;;;;;;;5.47;80.40;99959.13;5075473;28;20217;-74
2021/11/24 08:08:35;;;;;;;5.43;4.38;;;;;;;5.29;81.07;99957.03;5073476;28;20268;-75
2021/11/24 08:11:02;;;;;;;7.00;4.00;;;;;;;5.19;81.59;99951.97;5060721;28;20589;-73
2021/11/24 08:13:29;;;;;;;6.13;4.43;;;;;;;5.28;81.33;99955.28;5055666;28;20186;-74
2021/11/24 08:15:56;;;;;;;5.97;4.40;;;;;;;5.17;81.64;99953.81;5056167;28;20301;-75
2021/11/24 08:18:22;;;;;;;8.07;4.30;;;;;;;5.22;81.66;99956.34;5055743;28;20265;-74
2021/11/24 08:20:49;;;;;;;5.45;4.15;;;;;;;5.29;81.49;99951.69;5053115;28;20245;-74
2021/11/24 08:23:17;;;;;;;6.00;4.40;;;;;;;5.36;81.29;99951.47;5075119;28;20252;-74
2021/11/24 08:25:44;;;;;;;5.93;4.93;;;;;;;5.19;81.58;99941.28;5075390;28;20265;-73
2021/11/24 08:28:11;;;;;;;10.02;8.43;;;;;;;5.17;82.29;99942.25;5072431;28;20292;-75
2021/11/24 08:30:38;;;;;;;10.05;5.70;;;;;;;5.26;82.34;99941.09;5055439;28;20300;-74
2021/11/24 08:33:05;;;;;;;6.00;5.00;;;;;;;5.36;81.51;99942.56;5054792;28;20194;-74
2021/11/24 08:35:32;;;;;;;7.22;5.57;;;;;;;5.31;81.95;99944.50;5053790;28;20269;-74
2021/11/24 08:37:59;;;;;;;7.00;5.45;;;;;;;5.38;81.17;99930.94;5055037;28;20297;-75
2021/11/24 08:40:27;;;;;;;15.38;14.18;;;;;;;5.33;80.58;99945.31;5054905;28;20237;-74
2021/11/24 08:42:54;;;;;;;6.88;6.15;;;;;;;5.48;80.28;99938.66;5054038;28;20243;-75
2021/11/24 08:45:23;;;;;;;3.95;3.40;;;;;;;5.52;78.61;99932.28;5041913;28;20237;-74
2021/11/24 08:47:50;;;;;;;3.55;3.25;;;;;;;5.50;78.40;99929.66;5053757;28;20206;-75
2021/11/24 08:50:18;;;;;;;3.55;3.25;;;;;;;5.49;77.86;99937.72;5054853;28;20635;-73
2021/11/24 08:52:45;;;;;;;7.80;5.18;;;;;;;5.51;78.28;99931.38;5039306;28;20278;-74
2021/11/24 08:55:12;;;;;;;5.10;3.75;;;;;;;5.57;77.37;99928.53;5050176;28;20237;-74
2021/11/24 08:57:42;;;;;;;4.78;3.90;;;;;;;5.63;76.99;99917.66;5035209;28;20277;-75
2021/11/24 09:00:12;;;;;;;5.85;4.32;;;;;;;5.48;77.37;99920.81;5040550;28;20643;-75
2021/11/24 09:02:39;;;;;;;5.30;2.85;;;;;;;5.46;76.38;99921.78;5071268;28;20178;-74
2021/11/24 09:05:07;;;;;;;3.55;2.90;;;;;;;5.54;75.32;99909.03;5074639;28;20280;-75
2021/11/24 09:07:34;;;;;;;7.03;2.92;;;;;;;5.62;75.01;99921.22;5064166;28;20259;-75
2021/11/24 09:10:01;;;;;;;5.00;3.55;;;;;;;5.55;74.83;99905.47;5053717;28;20201;-75
2021/11/24 09:12:27;;;;;;;5.38;3.40;;;;;;;5.53;75.13;99905.50;5054384;28;20224;-76
2021/11/24 09:14:56;;;;;;;3.05;2.75;;;;;;;5.47;74.54;99900.34;5059550;28;20240;-76
2021/11/24 09:17:22;;;;;;;4.57;3.20;;;;;;;5.42;74.77;99904.97;5055511;28;20602;-75
2021/11/24 09:19:49;;;;;;;3.67;2.30;;;;;;;5.44;74.13;99887.13;5046204;28;20242;-74
2021/11/24 09:22:16;;;;;;;3.53;3.15;;;;;;;5.43;73.94;99886.25;5054925;28;20300;-75
2021/11/24 09:24:43;;;;;;;2.95;2.65;;;;;;;5.60;73.41;99885.69;5054428;28;20194;-74
2021/11/24 09:27:16;;;;;;;6.20;2.15;;;;;;;5.60;72.98;99891.03;5050931;28;20201;-73
2021/11/24 09:29:43;;;;;;;5.32;2.78;;;;;;;5.52;73.42;99887.75;5057776;28;20194;-73
2021/11/24 09:32:12;;;;;;;8.20;2.55;;;;;;;5.59;72.69;99883.94;5049754;28;20187;-74
2021/11/24 09:34:38;;;;;;;13.52;3.15;;;;;;;5.80;71.93;99879.66;5048521;28;20194;-74
2021/11/24 09:37:05;;;;;;;2.75;2.53;;;;;;;5.73;72.05;99885.28;5072010;28;20629;-74
2021/11/24 09:39:32;;;;;;;3.33;3.00;;;;;;;5.69;71.74;99873.81;5034387;28;20187;-74
2021/11/24 09:42:03;;;;;;;2.92;2.55;;;;;;;5.76;71.57;99867.34;5047019;28;20277;-75
2021/11/24 09:44:31;;;;;;;3.42;2.67;;;;;;;5.82;70.84;99871.59;5053854;28;20277;-74
2021/11/24 09:47:01;;;;;;;4.00;2.80;;;;;;;5.84;70.51;99867.09;5053970;28;20594;-74
2021/11/24 09:49:30;;;;;;;4.32;2.85;;;;;;;5.86;70.42;99859.91;5054035;28;20320;-73
2021/11/24 09:51:57;;;;;;;3.85;3.00;;;;;;;5.79;70.23;99856.56;5054204;28;20233;-74
2021/11/24 09:54:25;;;;;;;4.13;3.15;;;;;;;5.82;69.23;99851.09;5051674;28;20221;-74
2021/11/24 09:56:51;;;;;;;3.83;2.60;;;;;;;5.77;69.17;99854.88;5046514;28;20193;-74
2021/11/24 09:59:18;;;;;;;4.28;3.20;;;;;;;6.02;68.49;99853.13;5035175;28;20256;-74
2021/11/24 10:01:45;;;;;;;3.40;2.97;;;;;;;6.20;67.56;99842.69;5044973;28;20229;-74
2021/11/24 10:04:12;;;;;;;3.78;3.20;;;;;;;6.25;66.87;99846.06;5073657;28;20625;-74
2021/11/24 10:06:41;;;;;;;12.73;3.97;;;;;;;6.41;66.86;99841.88;5055580;28;20288;-73
2021/11/24 10:09:08;;;;;;;3.40;3.10;;;;;;;6.21;67.51;99836.41;5059736;28;20300;-73
2021/11/24 10:11:35;;;;;;;4.95;3.42;;;;;;;6.25;66.99;99835.38;5073708;28;20693;-73
2021/11/24 10:14:02;;;;;;;5.05;3.85;;;;;;;6.62;66.08;99820.59;5067624;28;20282;-74
2021/11/24 10:16:31;;;;;;;4.90;4.15;;;;;;;6.56;65.08;99826.22;5051815;28;20185;-73
2021/11/24 10:19:00;;;;;;;4.25;3.85;;;;;;;6.38;65.90;99822.44;5073629;28;20300;-74
2021/11/24 10:21:27;;;;;;;5.47;4.25;;;;;;;6.68;65.30;99815.03;5053587;28;20202;-74
2021/11/24 10:23:59;;;;;;;4.60;3.10;;;;;;;6.87;64.55;99800.00;5053567;28;20236;-73
2021/11/24 10:26:29;;;;;;;5.82;4.90;;;;;;;7.06;63.79;99799.25;5053604;28;20281;-74
2021/11/24 10:28:58;;;;;;;4.05;2.45;;;;;;;6.84;63.69;99800.09;5058243;28;20193;-74
2021/11/24 10:31:29;;;;;;;3.20;2.90;;;;;;;6.69;64.19;99803.38;5068134;28;20282;-73
2021/11/24 10:33:56;;;;;;;6.75;3.70;;;;;;;6.72;64.62;99789.91;5051511;28;20221;-74
2021/11/24 10:36:23;;;;;;;3.40;2.78;;;;;;;6.68;64.65;99796.28;5052987;28;20316;-73
2021/11/24 10:38:52;;;;;;;9.50;3.60;;;;;;;6.82;64.79;99779.69;5052889;28;20208;-74
2021/11/24 10:41:35;;;;;;;3.50;3.20;;;;;;;6.73;65.24;99786.28;5053045;28;20210;-74
2021/11/24 10:44:04;;;;;;;5.85;2.80;;;;;;;6.96;64.04;99769.28;5053325;28;20186;-74
2021/11/24 10:46:32;;;;;;;4.57;2.65;;;;;;;6.76;64.70;99778.16;5053022;28;20198;-74
2021/11/24 10:49:05;;;;;;;3.20;2.90;;;;;;;6.92;64.67;99767.69;5053423;28;20217;-74
2021/11/24 10:51:35;;;;;;;3.45;2.80;;;;;;;6.74;64.58;99769.31;5060288;28;20185;-74
2021/11/24 10:54:15;;;;;;;5.60;4.13;;;;;;;6.79;65.33;99775.34;5056278;28;20195;-74
2021/11/24 10:57:06;;;;;;;5.57;3.38;;;;;;;6.97;64.30;99768.38;5036326;28;20264;-74
2021/11/24 10:59:35;;;;;;;6.78;3.25;;;;;;;6.96;63.92;99766.63;5052439;28;20191;-74
2021/11/24 11:02:34;;;;;;;4.65;3.03;;;;;;;6.83;63.92;99755.56;5054206;28;20269;-73
2021/11/24 11:05:08;;;;;;;7.55;5.50;;;;;;;7.13;63.75;99751.69;5051631;28;20734;-74
2021/11/24 11:07:37;;;;;;;4.45;3.55;;;;;;;7.28;62.82;99748.34;5053678;28;20697;-74
2021/11/24 11:10:15;;;;;;;3.65;2.88;;;;;;;7.11;62.68;99743.72;5060187;28;20586;-73
2021/11/24 11:12:45;;;;;;;3.72;3.03;;;;;;;6.82;62.77;99740.41;5049767;28;20560;-73
2021/11/24 11:15:15;;;;;;;4.05;2.95;;;;;;;6.70;63.67;99737.38;5043035;28;20278;-73
2021/11/24 11:17:57;;;;;;;9.98;7.47;;;;;;;6.71;64.17;99726.59;5058012;28;20269;-74
2021/11/24 11:20:26;;;;;;;4.57;3.30;;;;;;;6.72;63.50;99723.00;5054885;28;20612;-74
2021/11/24 11:22:57;;;;;;;4.63;2.90;;;;;;;6.79;63.31;99720.94;5049102;28;20218;-75
2021/11/24 11:25:23;;;;;;;5.07;3.17;;;;;;;7.05;61.99;99718.03;5032050;28;20281;-75
2021/11/24 11:27:52;;;;;;;3.25;2.55;;;;;;;7.07;61.32;99708.13;5045507;28;20284;-76
2021/11/24 11:30:19;;;;;;;5.03;2.60;;;;;;;7.28;60.61;99708.16;5046137;28;20233;-74
2021/11/24 11:32:47;;;;;;;2.85;2.55;;;;;;;7.14;60.65;99705.22;5051641;28;20229;-75